sensor_id;sensor_type;location;lat;lon;timestamp;P1;durP1;ratioP1;P2;durP2;ratioP2
48207;SDS011;33997;53.278;9.708;2023-05-07T00:01:47;19.00;;;13.85;;
48207;SDS011;33997;53.278;9.708;2023-05-07T00:04:12;17.00;;;13.32;;
48207;SDS011;33997;53.278;9.708;2023-05-07T00:06:38;18.17;;;12.90;;
48207;SDS011;33997;53.278;9.708;2023-05-07T00:09:04;16.88;;;12.93;;
48207;SDS011;33997;53.278;9.708;2023-05-07T00:11:30;15.02;;;11.65;;
48207;SDS011;33997;53.278;9.708;2023-05-07T00:13:56;14.07;;;10.98;;
48207;SDS011;33997;53.278;9.708;2023-05-07T00:16:21;15.20;;;10.73;;
48207;SDS011;33997;53.278;9.708;2023-05-07T00:18:47;15.77;;;10.32;;
48207;SDS011;33997;53.278;9.708;2023-05-07T00:21:12;17.75;;;11.00;;
48207;SDS011;33997;53.278;9.708;2023-05-07T00:23:38;14.88;;;10.27;;
48207;SDS011;33997;53.278;9.708;2023-05-07T00:26:03;13.05;;;9.27;;
48207;SDS011;33997;53.278;9.708;2023-05-07T00:28:29;15.25;;;10.02;;
48207;SDS011;33997;53.278;9.708;2023-05-07T00:30:55;13.43;;;9.25;;
48207;SDS011;33997;53.278;9.708;2023-05-07T00:33:21;13.30;;;8.32;;
48207;SDS011;33997;53.278;9.708;2023-05-07T00:35:47;11.25;;;7.70;;
48207;SDS011;33997;53.278;9.708;2023-05-07T00:38:12;12.57;;;7.85;;
48207;SDS011;33997;53.278;9.708;2023-05-07T00:40:38;10.05;;;6.25;;
48207;SDS011;33997;53.278;9.708;2023-05-07T00:43:03;12.07;;;7.60;;
48207;SDS011;33997;53.278;9.708;2023-05-07T00:45:29;10.38;;;7.15;;
48207;SDS011;33997;53.278;9.708;2023-05-07T00:47:58;11.50;;;7.50;;
48207;SDS011;33997;53.278;9.708;2023-05-07T00:50:25;9.95;;;7.68;;
48207;SDS011;33997;53.278;9.708;2023-05-07T00:52:52;10.85;;;7.43;;
48207;SDS011;33997;53.278;9.708;2023-05-07T00:55:18;11.55;;;7.95;;
48207;SDS011;33997;53.278;9.708;2023-05-07T00:57:44;11.27;;;7.78;;
48207;SDS011;33997;53.278;9.708;2023-05-07T01:00:10;10.77;;;8.02;;
48207;SDS011;33997;53.278;9.708;2023-05-07T01:02:40;11.95;;;7.43;;
48207;SDS011;33997;53.278;9.708;2023-05-07T01:05:06;12.18;;;8.45;;
48207;SDS011;33997;53.278;9.708;2023-05-07T01:07:34;9.77;;;7.38;;
48207;SDS011;33997;53.278;9.708;2023-05-07T01:10:00;10.15;;;7.55;;
48207;SDS011;33997;53.278;9.708;2023-05-07T01:12:28;12.63;;;8.30;;
48207;SDS011;33997;53.278;9.708;2023-05-07T01:14:54;10.50;;;7.30;;
48207;SDS011;33997;53.278;9.708;2023-05-07T01:17:20;14.27;;;8.85;;
48207;SDS011;33997;53.278;9.708;2023-05-07T01:19:45;13.40;;;8.38;;
48207;SDS011;33997;53.278;9.708;2023-05-07T01:22:12;13.18;;;9.13;;
48207;SDS011;33997;53.278;9.708;2023-05-07T01:24:40;13.68;;;9.35;;
48207;SDS011;33997;53.278;9.708;2023-05-07T01:27:07;13.35;;;8.27;;
48207;SDS011;33997;53.278;9.708;2023-05-07T01:29:32;11.15;;;8.60;;
48207;SDS011;33997;53.278;9.708;2023-05-07T01:31:58;11.80;;;9.23;;
48207;SDS011;33997;53.278;9.708;2023-05-07T01:34:26;12.85;;;8.65;;
48207;SDS011;33997;53.278;9.708;2023-05-07T01:36:55;11.80;;;8.80;;
48207;SDS011;33997;53.278;9.708;2023-05-07T01:39:26;11.95;;;9.10;;
48207;SDS011;33997;53.278;9.708;2023-05-07T01:41:54;16.20;;;8.65;;
48207;SDS011;33997;53.278;9.708;2023-05-07T01:44:21;11.50;;;9.00;;
48207;SDS011;33997;53.278;9.708;2023-05-07T01:46:47;11.80;;;8.55;;
48207;SDS011;33997;53.278;9.708;2023-05-07T01:49:13;13.07;;;9.15;;
48207;SDS011;33997;53.278;9.708;2023-05-07T01:51:40;13.35;;;8.70;;
48207;SDS011;33997;53.278;9.708;2023-05-07T01:54:06;11.52;;;8.75;;
48207;SDS011;33997;53.278;9.708;2023-05-07T01:56:33;12.05;;;8.68;;
48207;SDS011;33997;53.278;9.708;2023-05-07T01:58:58;11.40;;;8.23;;
48207;SDS011;33997;53.278;9.708;2023-05-07T02:01:24;12.18;;;8.55;;
48207;SDS011;33997;53.278;9.708;2023-05-07T02:03:49;11.25;;;8.48;;
48207;SDS011;33997;53.278;9.708;2023-05-07T02:06:15;10.77;;;8.60;;
48207;SDS011;33997;53.278;9.708;2023-05-07T02:08:41;10.95;;;8.55;;
48207;SDS011;33997;53.278;9.708;2023-05-07T02:11:06;9.68;;;7.03;;
48207;SDS011;33997;53.278;9.708;2023-05-07T02:13:32;14.13;;;8.45;;
48207;SDS011;33997;53.278;9.708;2023-05-07T02:15:59;11.52;;;8.43;;
48207;SDS011;33997;53.278;9.708;2023-05-07T02:18:24;11.73;;;8.18;;
48207;SDS011;33997;53.278;9.708;2023-05-07T02:20:50;12.20;;;8.13;;
48207;SDS011;33997;53.278;9.708;2023-05-07T02:23:15;11.20;;;8.65;;
48207;SDS011;33997;53.278;9.708;2023-05-07T02:25:41;10.50;;;7.22;;
48207;SDS011;33997;53.278;9.708;2023-05-07T02:28:06;11.38;;;8.30;;
48207;SDS011;33997;53.278;9.708;2023-05-07T02:30:32;11.95;;;9.18;;
48207;SDS011;33997;53.278;9.708;2023-05-07T02:32:57;10.50;;;8.18;;
48207;SDS011;33997;53.278;9.708;2023-05-07T02:35:24;12.95;;;9.63;;
48207;SDS011;33997;53.278;9.708;2023-05-07T02:37:50;10.80;;;8.55;;
48207;SDS011;33997;53.278;9.708;2023-05-07T02:40:15;12.65;;;8.93;;
48207;SDS011;33997;53.278;9.708;2023-05-07T02:42:40;13.35;;;9.52;;
48207;SDS011;33997;53.278;9.708;2023-05-07T02:45:06;15.00;;;9.13;;
48207;SDS011;33997;53.278;9.708;2023-05-07T02:47:32;12.50;;;9.23;;
48207;SDS011;33997;53.278;9.708;2023-05-07T02:49:58;11.30;;;8.80;;
48207;SDS011;33997;53.278;9.708;2023-05-07T02:52:23;11.63;;;8.73;;
48207;SDS011;33997;53.278;9.708;2023-05-07T02:54:48;13.32;;;9.38;;
48207;SDS011;33997;53.278;9.708;2023-05-07T02:57:14;11.82;;;8.63;;
48207;SDS011;33997;53.278;9.708;2023-05-07T02:59:40;12.93;;;9.35;;
48207;SDS011;33997;53.278;9.708;2023-05-07T03:02:06;10.35;;;8.40;;
48207;SDS011;33997;53.278;9.708;2023-05-07T03:04:32;11.65;;;9.23;;
48207;SDS011;33997;53.278;9.708;2023-05-07T03:06:57;11.30;;;8.38;;
48207;SDS011;33997;53.278;9.708;2023-05-07T03:09:23;11.30;;;8.00;;
48207;SDS011;33997;53.278;9.708;2023-05-07T03:11:48;11.60;;;8.27;;
48207;SDS011;33997;53.278;9.708;2023-05-07T03:14:14;12.02;;;8.05;;
48207;SDS011;33997;53.278;9.708;2023-05-07T03:16:39;10.43;;;7.80;;
48207;SDS011;33997;53.278;9.708;2023-05-07T03:19:05;10.93;;;8.38;;
48207;SDS011;33997;53.278;9.708;2023-05-07T03:21:30;10.88;;;8.10;;
48207;SDS011;33997;53.278;9.708;2023-05-07T03:23:58;10.15;;;8.13;;
48207;SDS011;33997;53.278;9.708;2023-05-07T03:26:24;12.02;;;7.97;;
48207;SDS011;33997;53.278;9.708;2023-05-07T03:28:50;8.88;;;6.85;;
48207;SDS011;33997;53.278;9.708;2023-05-07T03:31:15;10.35;;;7.97;;
48207;SDS011;33997;53.278;9.708;2023-05-07T03:33:51;11.30;;;7.93;;
48207;SDS011;33997;53.278;9.708;2023-05-07T03:36:17;11.73;;;8.27;;
48207;SDS011;33997;53.278;9.708;2023-05-07T03:38:43;12.13;;;8.48;;
48207;SDS011;33997;53.278;9.708;2023-05-07T03:41:08;11.23;;;7.63;;
48207;SDS011;33997;53.278;9.708;2023-05-07T03:43:34;10.68;;;7.45;;
48207;SDS011;33997;53.278;9.708;2023-05-07T03:45:59;11.50;;;7.88;;
48207;SDS011;33997;53.278;9.708;2023-05-07T03:48:25;10.55;;;8.07;;
48207;SDS011;33997;53.278;9.708;2023-05-07T03:50:51;10.45;;;8.30;;
48207;SDS011;33997;53.278;9.708;2023-05-07T03:53:16;14.02;;;8.60;;
48207;SDS011;33997;53.278;9.708;2023-05-07T03:55:42;11.30;;;8.27;;
48207;SDS011;33997;53.278;9.708;2023-05-07T03:58:07;11.13;;;8.32;;
48207;SDS011;33997;53.278;9.708;2023-05-07T04:00:32;14.20;;;9.32;;
48207;SDS011;33997;53.278;9.708;2023-05-07T04:03:03;12.30;;;9.83;;
48207;SDS011;33997;53.278;9.708;2023-05-07T04:05:29;12.88;;;10.20;;
48207;SDS011;33997;53.278;9.708;2023-05-07T04:07:55;12.50;;;9.77;;
48207;SDS011;33997;53.278;9.708;2023-05-07T04:10:21;13.40;;;9.88;;
48207;SDS011;33997;53.278;9.708;2023-05-07T04:12:46;13.02;;;10.55;;
48207;SDS011;33997;53.278;9.708;2023-05-07T04:15:12;14.73;;;10.50;;
48207;SDS011;33997;53.278;9.708;2023-05-07T04:17:37;13.13;;;10.05;;
48207;SDS011;33997;53.278;9.708;2023-05-07T04:20:03;12.43;;;9.45;;
48207;SDS011;33997;53.278;9.708;2023-05-07T04:22:29;15.35;;;10.43;;
48207;SDS011;33997;53.278;9.708;2023-05-07T04:24:55;12.70;;;10.02;;
48207;SDS011;33997;53.278;9.708;2023-05-07T04:27:21;13.40;;;10.48;;
48207;SDS011;33997;53.278;9.708;2023-05-07T04:29:46;15.15;;;10.38;;
48207;SDS011;33997;53.278;9.708;2023-05-07T04:32:12;12.82;;;9.30;;
48207;SDS011;33997;53.278;9.708;2023-05-07T04:34:38;14.70;;;10.10;;
48207;SDS011;33997;53.278;9.708;2023-05-07T04:37:03;13.60;;;9.65;;
48207;SDS011;33997;53.278;9.708;2023-05-07T04:39:29;15.10;;;10.13;;
48207;SDS011;33997;53.278;9.708;2023-05-07T04:41:54;14.73;;;10.40;;
48207;SDS011;33997;53.278;9.708;2023-05-07T04:44:20;12.85;;;9.45;;
48207;SDS011;33997;53.278;9.708;2023-05-07T04:46:46;13.07;;;9.77;;
48207;SDS011;33997;53.278;9.708;2023-05-07T04:49:11;15.52;;;10.45;;
48207;SDS011;33997;53.278;9.708;2023-05-07T04:51:37;13.98;;;10.38;;
48207;SDS011;33997;53.278;9.708;2023-05-07T04:54:03;13.77;;;10.82;;
48207;SDS011;33997;53.278;9.708;2023-05-07T04:56:28;13.93;;;10.00;;
48207;SDS011;33997;53.278;9.708;2023-05-07T04:58:57;13.25;;;10.00;;
48207;SDS011;33997;53.278;9.708;2023-05-07T05:01:22;13.13;;;9.73;;
48207;SDS011;33997;53.278;9.708;2023-05-07T05:03:48;13.27;;;9.75;;
48207;SDS011;33997;53.278;9.708;2023-05-07T05:06:13;17.33;;;10.25;;
48207;SDS011;33997;53.278;9.708;2023-05-07T05:08:39;11.57;;;8.93;;
48207;SDS011;33997;53.278;9.708;2023-05-07T05:11:04;15.30;;;11.13;;
48207;SDS011;33997;53.278;9.708;2023-05-07T05:13:30;11.77;;;9.10;;
48207;SDS011;33997;53.278;9.708;2023-05-07T05:15:55;14.23;;;10.60;;
48207;SDS011;33997;53.278;9.708;2023-05-07T05:18:21;13.30;;;8.20;;
48207;SDS011;33997;53.278;9.708;2023-05-07T05:20:46;13.73;;;9.77;;
48207;SDS011;33997;53.278;9.708;2023-05-07T05:23:12;12.80;;;9.00;;
48207;SDS011;33997;53.278;9.708;2023-05-07T05:25:37;13.65;;;9.80;;
48207;SDS011;33997;53.278;9.708;2023-05-07T05:28:04;12.48;;;9.35;;
48207;SDS011;33997;53.278;9.708;2023-05-07T05:30:29;12.05;;;8.68;;
48207;SDS011;33997;53.278;9.708;2023-05-07T05:32:55;11.85;;;9.27;;
48207;SDS011;33997;53.278;9.708;2023-05-07T05:35:20;13.00;;;8.88;;
48207;SDS011;33997;53.278;9.708;2023-05-07T05:37:46;13.75;;;9.65;;
48207;SDS011;33997;53.278;9.708;2023-05-07T05:40:11;11.43;;;9.15;;
48207;SDS011;33997;53.278;9.708;2023-05-07T05:42:37;12.43;;;9.60;;
48207;SDS011;33997;53.278;9.708;2023-05-07T05:45:03;12.55;;;9.38;;
48207;SDS011;33997;53.278;9.708;2023-05-07T05:47:29;12.10;;;8.80;;
48207;SDS011;33997;53.278;9.708;2023-05-07T05:49:54;11.95;;;8.88;;
48207;SDS011;33997;53.278;9.708;2023-05-07T05:52:20;12.70;;;8.93;;
48207;SDS011;33997;53.278;9.708;2023-05-07T05:54:48;12.70;;;8.85;;
48207;SDS011;33997;53.278;9.708;2023-05-07T05:57:14;12.55;;;8.80;;
48207;SDS011;33997;53.278;9.708;2023-05-07T05:59:39;13.00;;;9.60;;
48207;SDS011;33997;53.278;9.708;2023-05-07T06:02:05;13.10;;;9.50;;
48207;SDS011;33997;53.278;9.708;2023-05-07T06:04:31;14.05;;;9.75;;
48207;SDS011;33997;53.278;9.708;2023-05-07T06:06:57;12.73;;;9.07;;
48207;SDS011;33997;53.278;9.708;2023-05-07T06:09:22;14.02;;;9.23;;
48207;SDS011;33997;53.278;9.708;2023-05-07T06:11:48;13.98;;;9.30;;
48207;SDS011;33997;53.278;9.708;2023-05-07T06:14:13;14.05;;;9.88;;
48207;SDS011;33997;53.278;9.708;2023-05-07T06:16:39;12.75;;;9.75;;
48207;SDS011;33997;53.278;9.708;2023-05-07T06:19:04;13.68;;;9.73;;
48207;SDS011;33997;53.278;9.708;2023-05-07T06:21:30;12.27;;;9.10;;
48207;SDS011;33997;53.278;9.708;2023-05-07T06:23:56;14.57;;;9.93;;
48207;SDS011;33997;53.278;9.708;2023-05-07T06:26:21;12.40;;;9.40;;
48207;SDS011;33997;53.278;9.708;2023-05-07T06:28:47;13.57;;;9.77;;
48207;SDS011;33997;53.278;9.708;2023-05-07T06:33:41;15.80;;;9.88;;
48207;SDS011;33997;53.278;9.708;2023-05-07T06:36:08;14.60;;;9.77;;
48207;SDS011;33997;53.278;9.708;2023-05-07T06:38:33;13.88;;;9.90;;
48207;SDS011;33997;53.278;9.708;2023-05-07T06:40:59;13.52;;;9.25;;
48207;SDS011;33997;53.278;9.708;2023-05-07T06:43:24;19.92;;;9.25;;
48207;SDS011;33997;53.278;9.708;2023-05-07T06:45:49;12.50;;;8.63;;
48207;SDS011;33997;53.278;9.708;2023-05-07T06:48:15;12.73;;;8.05;;
48207;SDS011;33997;53.278;9.708;2023-05-07T06:50:41;13.88;;;8.48;;
48207;SDS011;33997;53.278;9.708;2023-05-07T06:53:07;15.65;;;9.80;;
48207;SDS011;33997;53.278;9.708;2023-05-07T06:55:32;12.20;;;8.82;;
48207;SDS011;33997;53.278;9.708;2023-05-07T06:57:58;14.65;;;8.95;;
48207;SDS011;33997;53.278;9.708;2023-05-07T07:00:25;12.48;;;8.43;;
48207;SDS011;33997;53.278;9.708;2023-05-07T07:02:54;13.73;;;8.38;;
48207;SDS011;33997;53.278;9.708;2023-05-07T07:05:20;10.65;;;8.50;;
48207;SDS011;33997;53.278;9.708;2023-05-07T07:07:46;11.65;;;8.45;;
48207;SDS011;33997;53.278;9.708;2023-05-07T07:10:18;13.50;;;8.38;;
48207;SDS011;33997;53.278;9.708;2023-05-07T07:12:44;10.70;;;7.47;;
48207;SDS011;33997;53.278;9.708;2023-05-07T07:15:10;12.20;;;7.50;;
48207;SDS011;33997;53.278;9.708;2023-05-07T07:17:36;10.90;;;7.90;;
48207;SDS011;33997;53.278;9.708;2023-05-07T07:20:01;12.93;;;8.02;;
48207;SDS011;33997;53.278;9.708;2023-05-07T07:22:27;14.43;;;9.07;;
48207;SDS011;33997;53.278;9.708;2023-05-07T07:24:53;11.90;;;8.13;;
48207;SDS011;33997;53.278;9.708;2023-05-07T07:27:19;11.82;;;7.70;;
48207;SDS011;33997;53.278;9.708;2023-05-07T07:29:44;10.18;;;7.28;;
48207;SDS011;33997;53.278;9.708;2023-05-07T07:32:10;12.02;;;7.72;;
48207;SDS011;33997;53.278;9.708;2023-05-07T07:34:35;11.07;;;7.45;;
48207;SDS011;33997;53.278;9.708;2023-05-07T07:37:02;12.60;;;7.68;;
48207;SDS011;33997;53.278;9.708;2023-05-07T07:39:30;12.38;;;7.45;;
48207;SDS011;33997;53.278;9.708;2023-05-07T07:41:56;10.60;;;6.90;;
48207;SDS011;33997;53.278;9.708;2023-05-07T07:44:21;11.75;;;7.07;;
48207;SDS011;33997;53.278;9.708;2023-05-07T07:46:47;12.77;;;7.32;;
48207;SDS011;33997;53.278;9.708;2023-05-07T07:49:12;10.63;;;7.03;;
48207;SDS011;33997;53.278;9.708;2023-05-07T07:51:38;9.55;;;7.13;;
48207;SDS011;33997;53.278;9.708;2023-05-07T07:54:03;13.85;;;6.43;;
48207;SDS011;33997;53.278;9.708;2023-05-07T07:56:29;11.10;;;6.85;;
48207;SDS011;33997;53.278;9.708;2023-05-07T07:58:54;9.80;;;5.82;;
48207;SDS011;33997;53.278;9.708;2023-05-07T08:01:20;9.63;;;6.20;;
48207;SDS011;33997;53.278;9.708;2023-05-07T08:03:45;9.95;;;6.50;;
48207;SDS011;33997;53.278;9.708;2023-05-07T08:06:11;11.73;;;6.13;;
48207;SDS011;33997;53.278;9.708;2023-05-07T08:08:36;10.85;;;6.82;;
48207;SDS011;33997;53.278;9.708;2023-05-07T08:11:02;9.13;;;6.10;;
48207;SDS011;33997;53.278;9.708;2023-05-07T08:13:27;10.35;;;6.50;;
48207;SDS011;33997;53.278;9.708;2023-05-07T08:15:53;8.52;;;5.75;;
48207;SDS011;33997;53.278;9.708;2023-05-07T08:18:18;9.55;;;6.25;;
48207;SDS011;33997;53.278;9.708;2023-05-07T08:20:44;9.68;;;6.10;;
48207;SDS011;33997;53.278;9.708;2023-05-07T08:23:09;9.90;;;5.95;;
48207;SDS011;33997;53.278;9.708;2023-05-07T08:25:35;8.55;;;5.68;;
48207;SDS011;33997;53.278;9.708;2023-05-07T08:28:01;8.68;;;6.03;;
48207;SDS011;33997;53.278;9.708;2023-05-07T08:30:28;9.60;;;6.50;;
48207;SDS011;33997;53.278;9.708;2023-05-07T08:32:53;8.05;;;5.47;;
48207;SDS011;33997;53.278;9.708;2023-05-07T08:35:19;11.35;;;6.18;;
48207;SDS011;33997;53.278;9.708;2023-05-07T08:37:44;9.73;;;5.75;;
48207;SDS011;33997;53.278;9.708;2023-05-07T08:40:10;8.23;;;4.85;;
48207;SDS011;33997;53.278;9.708;2023-05-07T08:42:36;9.05;;;5.80;;
48207;SDS011;33997;53.278;9.708;2023-05-07T08:45:03;7.78;;;5.60;;
48207;SDS011;33997;53.278;9.708;2023-05-07T08:47:34;9.65;;;6.03;;
48207;SDS011;33997;53.278;9.708;2023-05-07T08:50:12;8.23;;;5.03;;
48207;SDS011;33997;53.278;9.708;2023-05-07T08:52:41;7.95;;;5.50;;
48207;SDS011;33997;53.278;9.708;2023-05-07T08:55:07;8.75;;;5.10;;
48207;SDS011;33997;53.278;9.708;2023-05-07T08:57:33;8.55;;;5.63;;
48207;SDS011;33997;53.278;9.708;2023-05-07T08:59:59;9.00;;;5.10;;
48207;SDS011;33997;53.278;9.708;2023-05-07T09:02:25;7.28;;;4.95;;
48207;SDS011;33997;53.278;9.708;2023-05-07T09:04:50;7.90;;;5.30;;
48207;SDS011;33997;53.278;9.708;2023-05-07T09:07:17;7.13;;;4.90;;
48207;SDS011;33997;53.278;9.708;2023-05-07T09:09:44;7.53;;;5.55;;
48207;SDS011;33997;53.278;9.708;2023-05-07T09:12:10;8.43;;;5.60;;
48207;SDS011;33997;53.278;9.708;2023-05-07T09:14:35;7.38;;;5.68;;
48207;SDS011;33997;53.278;9.708;2023-05-07T09:17:01;10.80;;;5.15;;
48207;SDS011;33997;53.278;9.708;2023-05-07T09:19:26;8.70;;;5.53;;
48207;SDS011;33997;53.278;9.708;2023-05-07T09:21:59;9.27;;;5.95;;
48207;SDS011;33997;53.278;9.708;2023-05-07T09:24:26;7.57;;;5.55;;
48207;SDS011;33997;53.278;9.708;2023-05-07T09:26:53;9.05;;;5.60;;
48207;SDS011;33997;53.278;9.708;2023-05-07T09:29:20;9.23;;;5.45;;
48207;SDS011;33997;53.278;9.708;2023-05-07T09:31:46;7.78;;;5.57;;
48207;SDS011;33997;53.278;9.708;2023-05-07T09:34:11;7.88;;;5.68;;
48207;SDS011;33997;53.278;9.708;2023-05-07T09:36:36;11.70;;;5.75;;
48207;SDS011;33997;53.278;9.708;2023-05-07T09:39:02;8.70;;;5.90;;
48207;SDS011;33997;53.278;9.708;2023-05-07T09:41:29;8.50;;;5.30;;
48207;SDS011;33997;53.278;9.708;2023-05-07T09:43:55;7.95;;;5.65;;
48207;SDS011;33997;53.278;9.708;2023-05-07T09:46:24;8.25;;;5.22;;
48207;SDS011;33997;53.278;9.708;2023-05-07T09:51:24;7.65;;;4.85;;
48207;SDS011;33997;53.278;9.708;2023-05-07T09:53:53;8.95;;;4.63;;
48207;SDS011;33997;53.278;9.708;2023-05-07T09:56:19;9.10;;;5.20;;
48207;SDS011;33997;53.278;9.708;2023-05-07T09:58:45;7.40;;;4.85;;
48207;SDS011;33997;53.278;9.708;2023-05-07T10:01:11;8.23;;;5.05;;
48207;SDS011;33997;53.278;9.708;2023-05-07T10:03:38;6.45;;;4.22;;
48207;SDS011;33997;53.278;9.708;2023-05-07T10:06:06;7.18;;;4.50;;
48207;SDS011;33997;53.278;9.708;2023-05-07T10:08:37;6.70;;;3.97;;
48207;SDS011;33997;53.278;9.708;2023-05-07T10:11:05;6.78;;;4.00;;
48207;SDS011;33997;53.278;9.708;2023-05-07T10:13:31;6.93;;;4.30;;
48207;SDS011;33997;53.278;9.708;2023-05-07T10:15:59;7.07;;;3.83;;
48207;SDS011;33997;53.278;9.708;2023-05-07T10:18:25;7.25;;;4.18;;
48207;SDS011;33997;53.278;9.708;2023-05-07T10:20:54;7.18;;;3.80;;
48207;SDS011;33997;53.278;9.708;2023-05-07T10:23:50;5.47;;;3.80;;
48207;SDS011;33997;53.278;9.708;2023-05-07T10:26:22;6.72;;;4.30;;
48207;SDS011;33997;53.278;9.708;2023-05-07T10:28:49;5.55;;;3.60;;
48207;SDS011;33997;53.278;9.708;2023-05-07T10:34:07;5.90;;;3.63;;
48207;SDS011;33997;53.278;9.708;2023-05-07T10:36:36;5.53;;;3.65;;
48207;SDS011;33997;53.278;9.708;2023-05-07T10:39:02;5.75;;;3.67;;
48207;SDS011;33997;53.278;9.708;2023-05-07T10:41:27;6.47;;;3.72;;
48207;SDS011;33997;53.278;9.708;2023-05-07T10:43:53;6.43;;;4.20;;
48207;SDS011;33997;53.278;9.708;2023-05-07T10:46:19;6.00;;;4.30;;
48207;SDS011;33997;53.278;9.708;2023-05-07T10:51:26;6.88;;;4.13;;
48207;SDS011;33997;53.278;9.708;2023-05-07T10:56:40;8.18;;;4.30;;
48207;SDS011;33997;53.278;9.708;2023-05-07T11:01:58;7.53;;;3.75;;
48207;SDS011;33997;53.278;9.708;2023-05-07T11:04:27;5.40;;;3.90;;
48207;SDS011;33997;53.278;9.708;2023-05-07T11:12:17;5.25;;;4.18;;
48207;SDS011;33997;53.278;9.708;2023-05-07T11:15:04;7.47;;;4.07;;
48207;SDS011;33997;53.278;9.708;2023-05-07T11:17:56;6.43;;;4.10;;
48207;SDS011;33997;53.278;9.708;2023-05-07T11:26:02;7.00;;;4.25;;
48207;SDS011;33997;53.278;9.708;2023-05-07T11:28:42;5.40;;;3.80;;
48207;SDS011;33997;53.278;9.708;2023-05-07T11:31:08;4.68;;;3.55;;
48207;SDS011;33997;53.278;9.708;2023-05-07T11:33:34;7.03;;;3.40;;
48207;SDS011;33997;53.278;9.708;2023-05-07T11:36:02;7.00;;;3.67;;
48207;SDS011;33997;53.278;9.708;2023-05-07T11:38:35;9.80;;;3.88;;
48207;SDS011;33997;53.278;9.708;2023-05-07T11:41:02;6.68;;;4.07;;
48207;SDS011;33997;53.278;9.708;2023-05-07T11:43:30;6.15;;;3.80;;
48207;SDS011;33997;53.278;9.708;2023-05-07T11:46:04;9.73;;;3.95;;
48207;SDS011;33997;53.278;9.708;2023-05-07T11:48:36;6.50;;;4.00;;
48207;SDS011;33997;53.278;9.708;2023-05-07T11:51:03;5.93;;;4.03;;
48207;SDS011;33997;53.278;9.708;2023-05-07T11:53:36;5.68;;;3.75;;
48207;SDS011;33997;53.278;9.708;2023-05-07T11:56:10;6.57;;;4.00;;
48207;SDS011;33997;53.278;9.708;2023-05-07T11:58:40;7.55;;;4.30;;
48207;SDS011;33997;53.278;9.708;2023-05-07T12:01:07;6.97;;;4.05;;
48207;SDS011;33997;53.278;9.708;2023-05-07T12:03:37;6.15;;;3.78;;
48207;SDS011;33997;53.278;9.708;2023-05-07T12:06:07;5.30;;;3.85;;
48207;SDS011;33997;53.278;9.708;2023-05-07T12:08:35;5.97;;;4.13;;
48207;SDS011;33997;53.278;9.708;2023-05-07T12:11:02;5.43;;;3.70;;
48207;SDS011;33997;53.278;9.708;2023-05-07T12:13:28;6.53;;;3.92;;
48207;SDS011;33997;53.278;9.708;2023-05-07T12:15:54;7.05;;;4.00;;
48207;SDS011;33997;53.278;9.708;2023-05-07T12:18:21;5.38;;;3.70;;
48207;SDS011;33997;53.278;9.708;2023-05-07T12:20:48;5.40;;;3.72;;
48207;SDS011;33997;53.278;9.708;2023-05-07T12:23:14;6.32;;;3.67;;
48207;SDS011;33997;53.278;9.708;2023-05-07T12:25:40;5.78;;;3.20;;
48207;SDS011;33997;53.278;9.708;2023-05-07T12:28:13;7.45;;;3.70;;
48207;SDS011;33997;53.278;9.708;2023-05-07T12:30:43;5.90;;;3.42;;
48207;SDS011;33997;53.278;9.708;2023-05-07T12:33:10;6.60;;;3.40;;
48207;SDS011;33997;53.278;9.708;2023-05-07T12:35:37;5.32;;;3.35;;
48207;SDS011;33997;53.278;9.708;2023-05-07T12:38:10;5.15;;;3.40;;
48207;SDS011;33997;53.278;9.708;2023-05-07T12:40:38;6.55;;;3.40;;
48207;SDS011;33997;53.278;9.708;2023-05-07T12:43:14;6.47;;;3.58;;
48207;SDS011;33997;53.278;9.708;2023-05-07T12:45:50;4.85;;;3.30;;
48207;SDS011;33997;53.278;9.708;2023-05-07T12:48:19;4.90;;;3.03;;
48207;SDS011;33997;53.278;9.708;2023-05-07T12:50:45;4.32;;;2.97;;
48207;SDS011;33997;53.278;9.708;2023-05-07T12:53:14;5.25;;;3.03;;
48207;SDS011;33997;53.278;9.708;2023-05-07T12:55:50;4.75;;;3.22;;
48207;SDS011;33997;53.278;9.708;2023-05-07T12:58:17;4.25;;;2.85;;
48207;SDS011;33997;53.278;9.708;2023-05-07T13:00:44;6.10;;;3.08;;
48207;SDS011;33997;53.278;9.708;2023-05-07T13:03:20;4.15;;;2.70;;
48207;SDS011;33997;53.278;9.708;2023-05-07T13:05:50;5.30;;;2.75;;
48207;SDS011;33997;53.278;9.708;2023-05-07T13:08:27;5.82;;;3.30;;
48207;SDS011;33997;53.278;9.708;2023-05-07T13:10:57;5.85;;;3.00;;
48207;SDS011;33997;53.278;9.708;2023-05-07T13:13:25;5.90;;;3.35;;
48207;SDS011;33997;53.278;9.708;2023-05-07T13:15:50;5.45;;;3.40;;
48207;SDS011;33997;53.278;9.708;2023-05-07T13:18:17;4.20;;;3.10;;
48207;SDS011;33997;53.278;9.708;2023-05-07T13:20:42;6.03;;;3.25;;
48207;SDS011;33997;53.278;9.708;2023-05-07T13:23:08;5.07;;;3.00;;
48207;SDS011;33997;53.278;9.708;2023-05-07T13:25:33;5.20;;;2.88;;
48207;SDS011;33997;53.278;9.708;2023-05-07T13:27:59;5.97;;;3.38;;
48207;SDS011;33997;53.278;9.708;2023-05-07T13:30:25;3.83;;;2.85;;
48207;SDS011;33997;53.278;9.708;2023-05-07T13:32:50;5.10;;;3.20;;
48207;SDS011;33997;53.278;9.708;2023-05-07T13:35:17;5.13;;;2.83;;
48207;SDS011;33997;53.278;9.708;2023-05-07T13:37:42;5.88;;;2.90;;
48207;SDS011;33997;53.278;9.708;2023-05-07T13:40:08;5.22;;;3.17;;
48207;SDS011;33997;53.278;9.708;2023-05-07T13:42:34;5.97;;;2.97;;
48207;SDS011;33997;53.278;9.708;2023-05-07T13:44:59;4.30;;;2.70;;
48207;SDS011;33997;53.278;9.708;2023-05-07T13:47:25;6.60;;;3.03;;
48207;SDS011;33997;53.278;9.708;2023-05-07T13:49:51;5.60;;;3.08;;
48207;SDS011;33997;53.278;9.708;2023-05-07T13:52:16;5.75;;;3.15;;
48207;SDS011;33997;53.278;9.708;2023-05-07T13:54:42;4.07;;;2.72;;
48207;SDS011;33997;53.278;9.708;2023-05-07T13:57:08;6.22;;;3.55;;
48207;SDS011;33997;53.278;9.708;2023-05-07T13:59:33;6.07;;;3.72;;
48207;SDS011;33997;53.278;9.708;2023-05-07T14:01:59;6.03;;;3.60;;
48207;SDS011;33997;53.278;9.708;2023-05-07T14:04:25;4.22;;;2.95;;
48207;SDS011;33997;53.278;9.708;2023-05-07T14:06:50;6.30;;;3.45;;
48207;SDS011;33997;53.278;9.708;2023-05-07T14:09:16;6.30;;;3.10;;
48207;SDS011;33997;53.278;9.708;2023-05-07T14:11:41;5.38;;;3.35;;
48207;SDS011;33997;53.278;9.708;2023-05-07T14:14:07;6.63;;;3.55;;
48207;SDS011;33997;53.278;9.708;2023-05-07T14:16:35;5.60;;;3.25;;
48207;SDS011;33997;53.278;9.708;2023-05-07T14:19:01;6.22;;;3.40;;
48207;SDS011;33997;53.278;9.708;2023-05-07T14:21:26;6.90;;;3.88;;
48207;SDS011;33997;53.278;9.708;2023-05-07T14:23:52;6.88;;;3.50;;
48207;SDS011;33997;53.278;9.708;2023-05-07T14:26:17;4.75;;;3.30;;
48207;SDS011;33997;53.278;9.708;2023-05-07T14:28:43;4.97;;;3.22;;
48207;SDS011;33997;53.278;9.708;2023-05-07T14:31:11;4.68;;;2.90;;
48207;SDS011;33997;53.278;9.708;2023-05-07T14:33:36;7.82;;;3.33;;
48207;SDS011;33997;53.278;9.708;2023-05-07T14:36:02;5.65;;;3.13;;
48207;SDS011;33997;53.278;9.708;2023-05-07T14:38:28;4.75;;;2.88;;
48207;SDS011;33997;53.278;9.708;2023-05-07T14:40:54;4.32;;;2.65;;
48207;SDS011;33997;53.278;9.708;2023-05-07T14:43:21;7.80;;;2.90;;
48207;SDS011;33997;53.278;9.708;2023-05-07T14:45:46;4.65;;;2.55;;
48207;SDS011;33997;53.278;9.708;2023-05-07T14:48:12;4.25;;;2.55;;
48207;SDS011;33997;53.278;9.708;2023-05-07T14:50:40;3.30;;;2.55;;
48207;SDS011;33997;53.278;9.708;2023-05-07T14:53:06;6.53;;;2.72;;
48207;SDS011;33997;53.278;9.708;2023-05-07T14:55:32;5.88;;;2.72;;
48207;SDS011;33997;53.278;9.708;2023-05-07T14:57:59;3.55;;;2.55;;
48207;SDS011;33997;53.278;9.708;2023-05-07T15:00:25;5.07;;;2.60;;
48207;SDS011;33997;53.278;9.708;2023-05-07T15:02:50;5.35;;;2.70;;